Time;durP1;ratioP1;P1;durP2;ratioP2;P2;SDS_P1;SDS_P2;PMS_P1;PMS_P2;Temp;Humidity;BMP_temperature;BMP_pressure;BME280_temperature;BME280_humidity;BME280_pressure;Samples;Min_cycle;Max_cycle;Signal;HPM_P1;HPM_P2
2021/01/30 00:02:50;;;;;;;233.82;190.68;;;19.10;51.40;;;;;;4875251;53;21060;-22
2021/01/30 00:07:51;;;;;;;237.57;194.05;;;19.10;51.50;;;;;;4898357;53;21037;-18
2021/01/30 00:12:52;;;;;;;239.30;194.07;;;19.10;51.10;;;;;;4875076;57;21108;-21
2021/01/30 00:17:54;;;;;;;237.57;193.15;;;19.10;51.30;;;;;;4896123;53;21001;-17
2021/01/30 00:22:57;;;;;;;230.73;187.62;;;19.10;51.20;;;;;;4880386;53;21523;-23
2021/01/30 00:27:58;;;;;;;231.77;186.00;;;19.10;51.30;;;;;;4875585;53;20997;-23
2021/01/30 00:33:01;;;;;;;229.25;186.35;;;19.10;51.30;;;;;;4882830;53;20984;-26
2021/01/30 00:38:03;;;;;;;236.27;190.65;;;19.10;51.30;;;;;;4890859;53;21049;-22
2021/01/30 00:43:05;;;;;;;225.07;182.95;;;19.10;51.20;;;;;;4890838;53;22234;-27
2021/01/30 00:48:06;;;;;;;228.05;186.10;;;19.10;51.20;;;;;;4889662;53;21468;-22
2021/01/30 00:53:07;;;;;;;227.80;184.27;;;19.10;51.00;;;;;;4890033;53;21464;-27
2021/01/30 00:58:08;;;;;;;220.60;177.05;;;19.10;51.10;;;;;;4898725;53;20990;-26
2021/01/30 01:03:12;;;;;;;220.70;177.52;;;19.10;51.10;;;;;;4888394;53;21056;-23
2021/01/30 01:08:13;;;;;;;225.23;181.65;;;19.00;50.80;;;;;;4891168;53;21593;-27
2021/01/30 01:13:14;;;;;;;217.13;172.80;;;19.10;50.90;;;;;;4890599;53;20970;-25
2021/01/30 01:18:16;;;;;;;218.55;176.37;;;19.10;51.10;;;;;;4886983;53;21057;-20
2021/01/30 01:23:16;;;;;;;220.18;176.27;;;19.10;51.70;;;;;;4886453;53;21010;-23
2021/01/30 01:28:17;;;;;;;216.43;174.02;;;19.10;51.00;;;;;;4887755;53;21452;-25
2021/01/30 01:33:19;;;;;;;217.90;173.25;;;19.10;50.80;;;;;;4886762;53;20982;-27
2021/01/30 01:38:20;;;;;;;217.18;170.00;;;19.10;51.10;;;;;;4874607;57;21029;-32
2021/01/30 01:43:24;;;;;;;208.63;169.23;;;19.10;51.70;;;;;;4879591;53;21468;-31
2021/01/30 01:48:29;;;;;;;207.15;165.40;;;19.00;50.80;;;;;;4923446;53;20986;-26
2021/01/30 01:53:40;;;;;;;208.68;164.52;;;19.10;51.10;;;;;;4903938;53;21061;-26
2021/01/30 01:58:45;;;;;;;210.68;169.10;;;19.00;50.90;;;;;;4902549;53;21136;-25
2021/01/30 02:03:53;;;;;;;205.25;162.12;;;19.00;50.90;;;;;;4883418;53;21021;-25
2021/01/30 02:08:54;;;;;;;209.12;167.45;;;19.00;50.90;;;;;;4874262;57;21037;-24
2021/01/30 02:13:56;;;;;;;207.10;164.25;;;19.00;50.80;;;;;;4875152;57;21536;-23
2021/01/30 02:22:36;;;;;;;206.20;158.32;;;19.00;50.80;;;;;;4942025;53;21002;-22
2021/01/30 02:31:57;;;;;;;205.60;161.27;;;19.00;50.90;;;;;;4903834;53;21104;-24
2021/01/30 02:37:15;;;;;;;199.73;157.48;;;19.00;50.80;;;;;;4875783;53;21535;-26
2021/01/30 02:43:00;;;;;;;197.57;155.05;;;19.00;50.80;;;;;;4905164;53;20965;-18
2021/01/30 02:48:11;;;;;;;201.18;156.50;;;19.00;50.70;;;;;;4888456;53;21005;-25
2021/01/30 02:53:51;;;;;;;197.85;158.55;;;19.00;50.80;;;;;;4913767;53;21057;-25
2021/01/30 02:59:01;;;;;;;202.40;159.10;;;19.00;50.80;;;;;;4945460;53;21048;-26
2021/01/30 03:04:10;;;;;;;187.05;148.80;;;19.00;50.70;;;;;;4878186;53;21040;-26
2021/01/30 03:11:35;;;;;;;192.45;149.23;;;19.00;50.80;;;;;;4894556;53;21536;-26
2021/01/30 03:16:39;;;;;;;193.30;151.73;;;19.00;50.70;;;;;;4885375;53;21555;-28
2021/01/30 03:21:41;;;;;;;185.65;147.18;;;19.00;50.70;;;;;;4886981;53;21025;-24
2021/01/30 03:26:44;;;;;;;187.88;147.60;;;19.00;50.60;;;;;;4939824;53;20981;-25
2021/01/30 03:31:45;;;;;;;187.45;146.98;;;19.00;50.60;;;;;;4874382;57;21050;-26
2021/01/30 03:36:46;;;;;;;185.23;143.32;;;19.00;50.50;;;;;;4874632;57;21009;-22
2021/01/30 03:41:47;;;;;;;179.55;145.07;;;19.00;50.60;;;;;;4909436;53;21041;-26
2021/01/30 03:46:48;;;;;;;180.65;141.50;;;19.00;50.40;;;;;;4886785;53;21232;-25
2021/01/30 03:51:49;;;;;;;180.48;142.85;;;19.00;50.60;;;;;;4892506;53;21037;-23
2021/01/30 03:56:50;;;;;;;178.45;142.70;;;19.00;50.60;;;;;;4881393;53;21002;-25
2021/01/30 04:01:50;;;;;;;175.68;141.65;;;19.00;50.50;;;;;;4874733;57;20977;-26
2021/01/30 04:06:54;;;;;;;167.30;132.25;;;19.00;50.50;;;;;;4911092;53;21056;-23
2021/01/30 04:11:55;;;;;;;173.50;136.90;;;19.00;50.40;;;;;;4908576;53;21451;-21
2021/01/30 04:16:56;;;;;;;174.90;137.02;;;19.00;50.40;;;;;;4880112;53;21016;-25
2021/01/30 04:21:57;;;;;;;172.87;136.35;;;19.00;50.50;;;;;;4907702;53;21455;-21
2021/01/30 04:26:58;;;;;;;171.65;134.35;;;19.00;50.40;;;;;;4882196;53;21036;-24
2021/01/30 04:31:59;;;;;;;168.48;134.00;;;19.00;50.40;;;;;;4883305;53;21001;-26
2021/01/30 04:37:00;;;;;;;164.05;130.40;;;19.00;50.30;;;;;;4919694;53;20990;-27
2021/01/30 04:42:20;;;;;;;168.45;134.07;;;19.00;50.40;;;;;;4910101;53;20966;-26
2021/01/30 04:47:43;;;;;;;167.87;133.20;;;19.00;50.30;;;;;;4931778;53;21597;-26
2021/01/30 04:53:04;;;;;;;162.95;128.00;;;19.00;50.40;;;;;;4903471;53;21479;-24
2021/01/30 04:59:04;;;;;;;164.27;129.45;;;19.00;50.20;;;;;;4898124;53;21097;-25
2021/01/30 05:04:15;;;;;;;158.07;126.65;;;19.00;50.30;;;;;;4903722;53;21010;-21
2021/01/30 05:09:44;;;;;;;161.50;131.02;;;19.00;50.40;;;;;;4875110;57;21435;-27
2021/01/30 05:14:59;;;;;;;156.23;124.65;;;19.00;50.40;;;;;;4882669;53;21005;-23
2021/01/30 05:20:08;;;;;;;159.85;126.65;;;19.00;50.30;;;;;;4907095;53;21056;-28
2021/01/30 05:25:15;;;;;;;149.00;118.97;;;19.00;50.30;;;;;;4908508;53;21440;-25
2021/01/30 05:32:17;;;;;;;149.30;120.82;;;19.00;50.40;;;;;;4888677;53;21029;-25
2021/01/30 05:37:31;;;;;;;152.85;123.18;;;19.00;50.50;;;;;;4906523;53;21036;-27
2021/01/30 05:42:41;;;;;;;155.20;121.50;;;18.90;50.40;;;;;;4883353;53;20981;-19
2021/01/30 05:47:46;;;;;;;146.20;115.68;;;19.00;50.50;;;;;;4916555;53;20993;-26
2021/01/30 05:52:47;;;;;;;151.15;118.18;;;19.00;50.40;;;;;;4894449;53;21024;-25
2021/01/30 05:57:48;;;;;;;149.70;118.07;;;19.00;50.60;;;;;;4921762;53;21538;-26
2021/01/30 06:03:23;;;;;;;145.77;115.78;;;19.00;50.60;;;;;;4876767;53;21053;-27
2021/01/30 06:08:30;;;;;;;144.93;114.28;;;18.90;50.40;;;;;;4874756;57;20978;-21
2021/01/30 06:13:31;;;;;;;140.93;111.40;;;18.90;50.40;;;;;;4874465;57;21041;-25
2021/01/30 06:18:40;;;;;;;140.43;110.15;;;18.90;50.60;;;;;;4874990;53;22029;-24
2021/01/30 06:24:05;;;;;;;141.35;111.43;;;18.90;50.50;;;;;;4922605;53;21458;-25
2021/01/30 06:29:16;;;;;;;138.60;109.15;;;18.90;50.60;;;;;;4900321;53;20978;-28
2021/01/30 06:34:31;;;;;;;143.27;113.35;;;18.90;50.60;;;;;;4885465;53;21053;-26
2021/01/30 06:39:35;;;;;;;138.68;109.47;;;18.90;50.50;;;;;;4891780;53;20989;-25
2021/01/30 06:44:38;;;;;;;139.98;110.53;;;18.90;50.80;;;;;;4884543;53;20978;-26
2021/01/30 06:49:59;;;;;;;130.85;106.20;;;18.90;50.70;;;;;;4888606;53;20942;-35
2021/01/30 06:55:12;;;;;;;137.52;108.65;;;18.90;50.70;;;;;;4891682;53;21013;-24
2021/01/30 07:00:32;;;;;;;134.73;105.35;;;18.90;51.30;;;;;;4888298;53;21101;-22
2021/01/30 07:07:19;;;;;;;129.32;104.68;;;18.90;50.70;;;;;;4896419;53;21038;-27
2021/01/30 07:15:02;;;;;;;136.95;106.15;;;18.90;50.60;;;;;;4881706;53;21009;-25
2021/01/30 07:21:19;;;;;;;127.35;102.35;;;18.90;50.50;;;;;;4907989;53;21073;-26
2021/01/30 07:26:31;;;;;;;124.87;99.47;;;18.90;50.60;;;;;;4883209;53;21072;-25
2021/01/30 07:31:38;;;;;;;131.68;103.10;;;18.90;50.60;;;;;;4880655;53;20975;-25
2021/01/30 07:36:55;;;;;;;126.75;100.05;;;18.90;50.50;;;;;;4892216;53;21527;-26
2021/01/30 07:42:14;;;;;;;128.68;101.60;;;18.90;50.80;;;;;;4874190;57;20970;-23
2021/01/30 07:47:40;;;;;;;128.50;102.72;;;18.90;50.60;;;;;;4911966;53;21049;-27
2021/01/30 07:54:47;;;;;;;122.78;101.03;;;18.90;50.50;;;;;;4898306;53;21542;-26
2021/01/30 08:00:03;;;;;;;;;;;18.90;50.50;;;;;;4889220;53;21546;-22
2021/01/30 08:05:43;;;;;;;127.87;100.82;;;18.90;50.60;;;;;;4899144;53;20077;-20
2021/01/30 08:10:58;;;;;;;125.43;98.37;;;18.90;50.50;;;;;;4909226;53;21048;-21
2021/01/30 08:18:02;;;;;;;125.68;98.37;;;18.90;50.50;;;;;;4916735;53;21037;-25
2021/01/30 08:23:56;;;;;;;129.77;102.20;;;18.90;50.20;;;;;;4874584;57;21045;-21
2021/01/30 08:29:11;;;;;;;125.75;102.22;;;18.90;50.40;;;;;;4875798;53;20986;-20
2021/01/30 08:34:35;;;;;;;126.78;99.82;;;18.90;50.30;;;;;;4923566;53;21531;-25
2021/01/30 08:40:05;;;;;;;128.12;102.93;;;18.90;50.40;;;;;;4900212;53;21049;-26
2021/01/30 08:45:09;;;;;;;125.90;100.47;;;18.90;50.30;;;;;;4877957;53;21009;-26
2021/01/30 08:53:41;;;;;;;124.57;100.03;;;18.90;50.20;;;;;;4887710;53;20970;-27
2021/01/30 08:58:46;;;;;;;132.07;104.45;;;18.90;50.40;;;;;;4896672;53;21057;-19
2021/01/30 09:04:00;;;;;;;127.87;104.22;;;18.90;50.30;;;;;;4894798;53;21566;-27
2021/01/30 09:09:13;;;;;;;129.63;102.87;;;18.90;50.20;;;;;;4919082;53;20985;-23
2021/01/30 09:14:36;;;;;;;131.50;103.35;;;18.90;50.20;;;;;;4878496;53;21087;-22
2021/01/30 09:26:36;;;;;;;131.73;104.50;;;18.90;50.10;;;;;;4874393;57;22336;-19
2021/01/30 09:31:37;;;;;;;134.98;107.85;;;18.90;50.00;;;;;;4882626;53;21090;-24
2021/01/30 09:36:43;;;;;;;129.90;104.97;;;18.90;50.10;;;;;;4885729;53;21053;-28
2021/01/30 09:41:44;;;;;;;129.70;102.57;;;18.90;50.00;;;;;;4873488;54;20989;-27
2021/01/30 09:46:50;;;;;;;135.35;106.43;;;19.00;50.00;;;;;;4873484;57;21516;-25
2021/01/30 09:51:53;;;;;;;137.07;110.22;;;19.00;50.10;;;;;;4903917;53;21488;-15
2021/01/30 09:57:02;;;;;;;130.75;104.65;;;19.00;50.00;;;;;;4917273;53;22019;-25
2021/01/30 10:02:18;;;;;;;138.18;108.65;;;19.00;50.00;;;;;;4910844;53;21033;-26
2021/01/30 10:07:28;;;;;;;135.10;107.55;;;19.00;50.00;;;;;;4874744;57;21022;-27
2021/01/30 10:12:33;;;;;;;139.65;109.82;;;19.00;50.00;;;;;;4874310;57;21133;-26
2021/01/30 10:17:41;;;;;;;134.25;107.37;;;19.00;50.00;;;;;;4874778;57;21065;-21
2021/01/30 10:22:45;;;;;;;136.50;109.93;;;19.00;50.10;;;;;;4895697;53;21467;-22
2021/01/30 10:27:47;;;;;;;139.48;110.40;;;19.00;50.10;;;;;;4875613;53;21005;-23
2021/01/30 10:32:59;;;;;;;137.05;109.22;;;19.00;50.10;;;;;;4888877;53;20986;-24
2021/01/30 10:38:17;;;;;;;137.50;110.43;;;19.00;50.10;;;;;;4879028;53;21061;-24
2021/01/30 10:43:26;;;;;;;136.50;110.90;;;19.00;50.10;;;;;;4872706;57;21496;-22
2021/01/30 10:48:33;;;;;;;137.43;110.63;;;19.00;50.10;;;;;;4938922;53;21057;-26
2021/01/30 10:53:39;;;;;;;147.18;115.37;;;19.00;50.10;;;;;;4874627;53;21022;-23
2021/01/30 10:58:42;;;;;;;141.32;107.55;;;19.00;50.10;;;;;;4874756;57;22167;-27
2021/01/30 11:04:00;;;;;;;142.05;113.97;;;19.00;50.10;;;;;;4888534;53;21614;-24
2021/01/30 11:09:23;;;;;;;136.60;108.75;;;19.00;50.10;;;;;;4905985;53;21016;-24
2021/01/30 11:14:29;;;;;;;137.57;109.63;;;19.00;50.10;;;;;;4903218;53;20998;-26
2021/01/30 11:19:48;;;;;;;138.20;109.10;;;19.00;50.10;;;;;;4897821;53;20986;-23
2021/01/30 11:31:38;;;;;;;140.57;112.12;;;19.10;50.20;;;;;;4884058;53;21524;-26
2021/01/30 11:36:39;;;;;;;138.43;113.07;;;19.00;50.10;;;;;;4893769;53;21468;-27
2021/01/30 11:41:40;;;;;;;138.37;111.65;;;19.10;50.20;;;;;;4875111;53;20973;-25
2021/01/30 11:46:41;;;;;;;143.50;115.40;;;19.10;50.20;;;;;;4874887;57;21131;-25
2021/01/30 11:51:42;;;;;;;138.65;114.25;;;19.10;50.20;;;;;;4890498;53;21077;-27
2021/01/30 11:56:44;;;;;;;136.85;108.78;;;19.10;50.20;;;;;;4884668;53;21002;-25
2021/01/30 12:01:46;;;;;;;140.32;114.07;;;19.10;50.20;;;;;;4874627;53;21010;-25
2021/01/30 12:06:47;;;;;;;132.85;106.47;;;19.10;50.20;;;;;;4892283;53;21025;-23
2021/01/30 12:11:48;;;;;;;135.27;107.15;;;19.10;50.20;;;;;;4893318;53;20998;-31
2021/01/30 12:16:53;;;;;;;140.40;112.15;;;19.10;50.30;;;;;;4899666;53;20974;-26
2021/01/30 12:21:54;;;;;;;137.37;110.80;;;19.00;50.20;;;;;;4912764;53;20998;-26
2021/01/30 12:26:54;;;;;;;128.73;105.22;;;19.10;50.30;;;;;;4922908;53;21431;-30
2021/01/30 12:31:55;;;;;;;132.45;108.00;;;19.10;50.30;;;;;;4874335;57;21050;-28
2021/01/30 12:36:56;;;;;;;136.62;111.35;;;19.10;51.00;;;;;;4923492;53;21001;-27
2021/01/30 12:41:57;;;;;;;136.43;108.90;;;19.10;50.30;;;;;;4873700;57;21551;-16
2021/01/30 12:46:58;;;;;;;137.40;109.55;;;19.00;50.30;;;;;;4885648;53;21543;-19
2021/01/30 12:51:59;;;;;;;127.95;105.20;;;19.00;50.30;;;;;;4888889;53;21005;-20
2021/01/30 12:56:59;;;;;;;134.00;110.60;;;19.00;50.30;;;;;;4888140;53;21045;-16
2021/01/30 13:02:01;;;;;;;133.82;109.18;;;19.10;50.30;;;;;;4873216;57;21313;-32
2021/01/30 13:07:05;;;;;;;129.32;103.97;;;19.10;50.30;;;;;;4913247;53;21159;-23
2021/01/30 13:12:10;;;;;;;134.68;108.00;;;19.10;50.30;;;;;;4875882;53;21025;-31
2021/01/30 13:17:12;;;;;;;129.95;106.18;;;19.00;50.30;;;;;;4882006;53;21502;-24
2021/01/30 13:22:12;;;;;;;136.68;106.80;;;19.00;50.30;;;;;;4877575;53;21510;-31
2021/01/30 13:27:13;;;;;;;130.20;106.22;;;19.00;50.30;;;;;;4874744;57;21005;-27
2021/01/30 13:32:16;;;;;;;124.72;101.45;;;19.00;50.30;;;;;;4890204;53;21444;-28
2021/01/30 13:37:19;;;;;;;123.20;100.78;;;19.00;50.30;;;;;;4876204;53;21547;-26
2021/01/30 13:42:20;;;;;;;131.05;106.53;;;19.00;50.30;;;;;;4883865;53;21053;-24
2021/01/30 13:47:22;;;;;;;128.07;104.82;;;19.00;50.30;;;;;;4883723;53;20989;-24
2021/01/30 13:52:22;;;;;;;118.50;99.22;;;19.10;50.30;;;;;;4875181;57;21524;-27
2021/01/30 13:57:23;;;;;;;124.57;102.95;;;19.10;50.30;;;;;;4917348;53;21038;-27
2021/01/30 14:02:24;;;;;;;125.53;104.03;;;19.00;50.30;;;;;;4878856;53;21511;-22
2021/01/30 14:07:25;;;;;;;126.95;103.87;;;19.00;50.40;;;;;;4939125;53;21516;-22
2021/01/30 14:12:26;;;;;;;124.30;102.07;;;19.00;50.30;;;;;;4933319;53;21444;-26
2021/01/30 14:17:27;;;;;;;124.07;100.35;;;19.00;50.30;;;;;;4899637;53;21069;-28
2021/01/30 14:22:28;;;;;;;118.37;95.53;;;19.00;50.30;;;;;;4899868;53;21627;-22
2021/01/30 14:27:28;;;;;;;124.30;101.57;;;19.00;50.30;;;;;;4915472;53;20986;-27
2021/01/30 14:32:29;;;;;;;126.03;102.75;;;19.10;50.30;;;;;;4891175;53;21428;-27
2021/01/30 14:37:30;;;;;;;118.40;99.68;;;19.00;50.90;;;;;;4888990;53;21112;-26
2021/01/30 14:42:34;;;;;;;117.47;96.95;;;19.00;50.30;;;;;;4886388;53;21570;-27
2021/01/30 14:47:34;;;;;;;113.37;95.30;;;19.00;50.20;;;;;;4900938;53;21041;-23
2021/01/30 14:52:35;;;;;;;119.85;99.47;;;19.00;50.20;;;;;;4874739;57;21483;-25
2021/01/30 14:57:37;;;;;;;114.37;94.40;;;19.00;50.20;;;;;;4879378;53;21082;-25
2021/01/30 15:02:38;;;;;;;118.55;97.10;;;19.10;50.30;;;;;;4886039;53;21029;-17
2021/01/30 15:07:41;;;;;;;112.22;92.10;;;19.00;50.30;;;;;;4914735;53;21084;-30
2021/01/30 15:12:42;;;;;;;114.80;93.50;;;19.00;50.80;;;;;;4893330;53;21033;-27
2021/01/30 15:17:43;;;;;;;118.93;96.60;;;19.00;50.90;;;;;;4874679;57;21061;-24
2021/01/30 15:22:44;;;;;;;114.50;93.37;;;19.00;50.20;;;;;;4903548;53;21507;-26
2021/01/30 15:27:45;;;;;;;114.90;96.20;;;19.00;50.20;;;;;;4901623;53;21547;-21
2021/01/30 15:32:47;;;;;;;113.90;92.90;;;19.00;50.20;;;;;;4885438;53;20979;-26
2021/01/30 15:37:48;;;;;;;117.45;95.80;;;19.00;50.20;;;;;;4874627;57;21068;-26
2021/01/30 15:42:49;;;;;;;116.65;93.20;;;19.00;50.20;;;;;;4911279;53;20980;-26
2021/01/30 15:47:50;;;;;;;118.03;95.20;;;19.00;50.20;;;;;;4877744;53;21472;-27
2021/01/30 15:52:51;;;;;;;118.60;94.32;;;19.00;50.20;;;;;;4895075;53;21106;-23
2021/01/30 15:57:52;;;;;;;115.05;94.25;;;19.10;50.30;;;;;;4887234;53;21492;-27
2021/01/30 16:02:53;;;;;;;124.53;98.87;;;19.00;50.20;;;;;;4874847;57;20993;-35
2021/01/30 16:07:54;;;;;;;118.25;95.03;;;19.00;50.30;;;;;;4874233;57;21005;-27
2021/01/30 16:12:54;;;;;;;121.70;97.43;;;19.00;50.30;;;;;;4887822;53;21044;-23
2021/01/30 16:17:55;;;;;;;122.95;97.22;;;19.00;50.30;;;;;;4928018;53;20977;-24
2021/01/30 16:22:58;;;;;;;122.82;96.97;;;19.10;50.40;;;;;;4899187;53;20998;-24
2021/01/30 16:27:59;;;;;;;115.62;94.78;;;19.00;50.50;;;;;;4886459;53;21006;-28
2021/01/30 16:33:00;;;;;;;123.30;97.72;;;19.00;50.20;;;;;;4889587;53;21537;-26
2021/01/30 16:38:02;;;;;;;124.22;98.87;;;19.00;50.20;;;;;;4874008;57;21178;-23
2021/01/30 16:43:04;;;;;;;127.55;100.93;;;19.00;50.20;;;;;;4916812;53;21456;-23
2021/01/30 16:48:06;;;;;;;126.32;100.70;;;19.00;50.30;;;;;;4875110;53;21063;-26
2021/01/30 16:53:07;;;;;;;121.60;97.88;;;19.10;50.30;;;;;;4874552;57;21053;-23
2021/01/30 16:58:11;;;;;;;126.62;100.20;;;19.00;50.20;;;;;;4874745;57;21515;-22
2021/01/30 17:03:11;;;;;;;124.10;100.57;;;19.00;50.30;;;;;;4897993;53;21444;-26
2021/01/30 17:08:12;;;;;;;127.15;101.95;;;19.00;50.30;;;;;;4888597;53;20997;-27
2021/01/30 17:13:16;;;;;;;126.15;101.97;;;19.00;50.30;;;;;;4880464;53;21065;-25
2021/01/30 17:18:17;;;;;;;127.35;100.50;;;19.00;50.30;;;;;;4874212;57;20989;-27
2021/01/30 17:23:19;;;;;;;133.77;106.40;;;19.10;50.30;;;;;;4886052;53;21029;-27
2021/01/30 17:28:20;;;;;;;130.20;104.45;;;19.10;50.40;;;;;;4877158;53;21013;-26
2021/01/30 17:33:23;;;;;;;131.40;104.60;;;19.00;50.30;;;;;;4875486;53;21089;-27
2021/01/30 17:38:23;;;;;;;137.98;108.53;;;19.00;50.30;;;;;;4876866;53;21570;-22
2021/01/30 17:43:24;;;;;;;132.98;107.63;;;19.10;50.40;;;;;;4890888;53;21132;-20
2021/01/30 17:48:26;;;;;;;134.50;107.03;;;19.10;50.40;;;;;;4880199;53;21079;-27
2021/01/30 17:53:28;;;;;;;135.63;108.00;;;19.00;50.40;;;;;;4882122;53;21103;-24
2021/01/30 17:58:29;;;;;;;139.35;110.45;;;19.00;50.30;;;;;;4874772;57;20982;-25
2021/01/30 18:03:30;;;;;;;138.82;110.12;;;19.10;50.40;;;;;;4901161;53;21021;-28
2021/01/30 18:08:31;;;;;;;144.27;113.40;;;19.00;50.40;;;;;;4875096;57;21029;-22
2021/01/30 18:13:32;;;;;;;141.32;112.22;;;19.10;50.40;;;;;;4902945;53;21013;-21
2021/01/30 18:18:32;;;;;;;138.02;112.05;;;19.10;50.50;;;;;;4889863;53;21476;-27
2021/01/30 18:23:33;;;;;;;143.65;116.47;;;19.10;50.50;;;;;;4882686;53;21021;-24
2021/01/30 18:28:34;;;;;;;144.18;114.10;;;19.10;50.40;;;;;;4890450;53;21056;-26
2021/01/30 18:33:35;;;;;;;145.80;116.43;;;19.10;50.50;;;;;;4882656;53;21049;-20
2021/01/30 18:38:36;;;;;;;143.35;114.90;;;19.10;50.50;;;;;;4896874;53;20990;-20
2021/01/30 18:43:36;;;;;;;148.77;120.43;;;19.10;50.50;;;;;;4874631;57;21464;-19
2021/01/30 18:48:38;;;;;;;150.90;120.10;;;19.10;50.50;;;;;;4896650;53;20970;-22
2021/01/30 18:53:39;;;;;;;150.07;119.97;;;19.10;50.50;;;;;;4879329;53;21578;-26
2021/01/30 18:58:39;;;;;;;153.95;122.97;;;19.10;50.40;;;;;;4876056;53;20977;-29
2021/01/30 19:03:40;;;;;;;151.75;121.50;;;19.10;50.40;;;;;;4874638;57;21480;-27
2021/01/30 19:08:42;;;;;;;157.70;122.15;;;19.10;50.50;;;;;;4881371;53;21096;-26
2021/01/30 19:13:43;;;;;;;159.93;125.20;;;19.10;50.50;;;;;;4874410;54;21472;-26
2021/01/30 19:18:44;;;;;;;153.12;124.10;;;19.10;50.50;;;;;;4900322;53;20986;-24
2021/01/30 19:23:44;;;;;;;155.75;124.43;;;19.10;50.40;;;;;;4882261;53;21432;-26
2021/01/30 19:28:45;;;;;;;159.57;124.40;;;19.10;50.40;;;;;;4885501;53;20977;-19
2021/01/30 19:33:46;;;;;;;156.77;125.68;;;19.10;50.60;;;;;;4910444;53;21081;-25
2021/01/30 19:38:47;;;;;;;156.85;124.55;;;19.10;50.40;;;;;;4884961;53;21022;-28
2021/01/30 19:43:48;;;;;;;158.12;125.10;;;19.10;50.50;;;;;;4879096;53;21589;-24
2021/01/30 19:48:49;;;;;;;162.52;127.90;;;19.10;50.50;;;;;;4884841;53;21457;-27
2021/01/30 19:53:50;;;;;;;157.27;124.70;;;19.10;50.50;;;;;;4878932;53;21014;-22
2021/01/30 19:58:51;;;;;;;161.50;128.87;;;19.10;50.70;;;;;;4918856;53;21009;-17
2021/01/30 20:03:53;;;;;;;164.13;129.43;;;19.10;50.50;;;;;;4885487;53;21009;-24
2021/01/30 20:08:54;;;;;;;160.07;128.77;;;19.10;50.50;;;;;;4885102;53;21467;-26
2021/01/30 20:13:56;;;;;;;165.40;131.20;;;19.10;50.40;;;;;;4901753;53;21064;-20
2021/01/30 20:18:57;;;;;;;167.23;131.80;;;19.10;50.40;;;;;;4883976;53;21468;-26
2021/01/30 20:23:58;;;;;;;164.10;130.87;;;19.10;50.30;;;;;;4875483;54;21025;-27
2021/01/30 20:28:59;;;;;;;173.87;136.25;;;19.10;51.10;;;;;;4893216;53;21037;-26
2021/01/30 20:34:00;;;;;;;167.55;132.35;;;19.10;50.30;;;;;;4922462;53;21516;-26
2021/01/30 20:39:00;;;;;;;166.98;130.07;;;19.10;50.30;;;;;;4888544;53;21439;-25
2021/01/30 20:44:01;;;;;;;170.23;135.40;;;19.10;50.40;;;;;;4874564;54;20982;-25
2021/01/30 20:49:02;;;;;;;161.40;129.20;;;19.10;50.40;;;;;;4897522;53;20999;-22
2021/01/30 20:54:05;;;;;;;167.37;133.40;;;19.10;51.00;;;;;;4874768;57;21011;-27
2021/01/30 20:59:06;;;;;;;173.60;134.85;;;19.10;50.30;;;;;;4928869;53;21001;-24
2021/01/30 21:04:07;;;;;;;167.37;133.10;;;19.10;50.40;;;;;;4888095;53;21072;-26
2021/01/30 21:09:11;;;;;;;164.88;132.63;;;19.10;50.20;;;;;;4902832;53;20993;-27
2021/01/30 21:14:12;;;;;;;171.13;135.57;;;19.20;50.40;;;;;;4902338;53;21101;-27
2021/01/30 21:19:14;;;;;;;173.93;137.02;;;19.10;50.90;;;;;;4890849;53;21472;-26
2021/01/30 21:24:15;;;;;;;170.73;135.18;;;19.10;50.20;;;;;;4942853;53;21472;-23
2021/01/30 21:29:15;;;;;;;169.73;135.55;;;19.10;50.90;;;;;;4882181;53;20994;-21
2021/01/30 21:34:16;;;;;;;160.20;127.43;;;19.10;50.10;;;;;;4882635;53;21049;-26
2021/01/30 21:39:17;;;;;;;174.10;135.45;;;19.10;50.20;;;;;;4936350;53;21056;-26
2021/01/30 21:44:18;;;;;;;166.55;133.32;;;19.10;50.00;;;;;;4933405;53;20994;-27
2021/01/30 21:49:19;;;;;;;161.23;129.95;;;19.10;50.10;;;;;;4880501;53;20990;-19
2021/01/30 21:54:20;;;;;;;170.10;132.98;;;19.10;50.10;;;;;;4938260;53;21034;-26
2021/01/30 21:59:21;;;;;;;165.35;129.02;;;19.10;50.10;;;;;;4891453;53;21563;-19
2021/01/30 22:04:22;;;;;;;164.88;128.98;;;19.10;50.10;;;;;;4874540;57;21456;-27
2021/01/30 22:09:22;;;;;;;166.85;133.77;;;19.10;50.10;;;;;;4892210;53;21021;-27
2021/01/30 22:14:23;;;;;;;168.43;133.55;;;19.10;50.10;;;;;;4874327;57;21021;-20
2021/01/30 22:19:24;;;;;;;168.43;133.15;;;19.10;49.90;;;;;;4900396;53;20986;-27
2021/01/30 22:24:25;;;;;;;166.85;130.87;;;19.10;49.90;;;;;;4879905;53;21115;-23
2021/01/30 22:29:26;;;;;;;163.57;130.52;;;19.20;50.10;;;;;;4903887;53;21491;-26
2021/01/30 22:34:26;;;;;;;164.88;130.15;;;19.10;50.00;;;;;;4884720;53;21046;-17
2021/01/30 22:39:27;;;;;;;167.80;131.93;;;19.20;50.10;;;;;;4898013;53;20990;-34
2021/01/30 22:44:28;;;;;;;166.62;130.45;;;19.20;49.80;;;;;;4886698;53;20994;-24
2021/01/30 22:49:29;;;;;;;162.30;127.78;;;19.20;49.90;;;;;;4876447;53;21556;-26
2021/01/30 22:54:30;;;;;;;163.90;129.05;;;19.10;49.90;;;;;;4883459;53;21093;-24
2021/01/30 22:59:31;;;;;;;167.48;133.68;;;19.20;50.00;;;;;;4879864;53;21441;-26
2021/01/30 23:04:32;;;;;;;167.13;131.57;;;19.20;49.80;;;;;;4895610;53;20990;-28
2021/01/30 23:09:33;;;;;;;162.43;127.97;;;19.10;49.70;;;;;;4879208;53;20986;-21
2021/01/30 23:14:33;;;;;;;164.95;127.62;;;19.10;49.80;;;;;;4876112;54;21001;-24
2021/01/30 23:19:35;;;;;;;162.10;126.50;;;19.10;49.60;;;;;;4886734;53;21018;-26
2021/01/30 23:24:38;;;;;;;166.55;127.00;;;19.10;49.70;;;;;;4908802;53;21002;-19
2021/01/30 23:29:39;;;;;;;164.35;128.87;;;19.20;49.60;;;;;;4888048;53;21069;-28
2021/01/30 23:34:43;;;;;;;166.85;131.18;;;19.20;49.50;;;;;;4888516;53;21516;-26
2021/01/30 23:39:44;;;;;;;162.82;128.95;;;19.10;49.80;;;;;;4895214;53;21088;-20
2021/01/30 23:44:45;;;;;;;165.00;129.12;;;19.20;49.60;;;;;;4875329;57;22048;-27
2021/01/30 23:49:46;;;;;;;167.93;128.57;;;19.20;49.60;;;;;;4922489;53;21029;-26
2021/01/30 23:54:46;;;;;;;166.25;127.82;;;19.20;49.60;;;;;;4884912;53;21017;-25
2021/01/30 23:59:47;;;;;;;161.07;126.12;;;19.10;49.50;;;;;;4891442;53;20982;-26
